Time;durP1;ratioP1;P1;durP2;ratioP2;P2;SDS_P1;SDS_P2;PMS_P1;PMS_P2;Temp;Humidity;BMP_temperature;BMP_pressure;BME280_temperature;BME280_humidity;BME280_pressure;Samples;Min_cycle;Max_cycle;Signal;HPM_P1;HPM_P2
2023/07/26 00:00:07;;;;;;;12.50;8.70;;;;;;;26.83;55.40;98783.21;106557;1254;60462;-90
2023/07/26 00:02:41;;;;;;;13.20;7.80;;;;;;;26.81;55.16;98782.73;106357;1254;63786;-87
2023/07/26 00:05:08;;;;;;;14.50;8.40;;;;;;;26.77;54.87;98787.09;106052;1260;61432;-89
2023/07/26 00:07:36;;;;;;;12.30;7.50;;;;;;;26.74;54.64;98789.03;106488;1258;63769;-84
2023/07/26 00:10:04;;;;;;;15.70;8.00;;;;;;;26.71;54.34;98789.83;105987;1257;60510;-90
2023/07/26 00:12:31;;;;;;;10.00;6.70;;;;;;;26.69;54.18;98793.23;106691;1254;60321;-83
2023/07/26 00:14:59;;;;;;;12.00;7.00;;;;;;;26.66;53.43;98793.98;105822;1254;72888;-80
2023/07/26 00:17:26;;;;;;;16.20;7.70;;;;;;;26.62;52.45;98792.17;105972;1254;69239;-85
2023/07/26 00:19:54;;;;;;;14.10;7.40;;;;;;;26.58;52.10;98795.23;106109;1258;62527;-87
2023/07/26 00:22:21;;;;;;;12.50;7.00;;;;;;;26.54;51.79;98797.98;106505;1256;60389;-84
2023/07/26 00:24:49;;;;;;;16.70;7.30;;;;;;;26.48;51.49;98792.73;105904;1256;60391;-89
2023/07/26 00:27:17;;;;;;;14.10;7.10;;;;;;;26.44;51.39;98792.34;106385;1257;63653;-87
2023/07/26 00:29:44;;;;;;;10.30;6.50;;;;;;;26.42;51.08;98793.64;106141;1251;60516;-88
2023/07/26 00:32:12;;;;;;;13.40;6.50;;;;;;;26.42;50.68;98800.71;106307;1251;63697;-86
2023/07/26 00:34:39;;;;;;;12.60;5.90;;;;;;;26.42;50.62;98800.81;106230;1251;60553;-86
2023/07/26 00:37:07;;;;;;;10.20;6.50;;;;;;;26.39;50.41;98792.92;106470;1256;60525;-84
2023/07/26 00:39:35;;;;;;;10.60;6.10;;;;;;;26.36;49.99;98786.89;106875;1251;64951;-84
2023/07/26 00:42:03;;;;;;;13.90;6.10;;;;;;;26.35;49.96;98788.55;106141;1251;61350;-83
2023/07/26 00:44:30;;;;;;;10.70;6.00;;;;;;;26.32;49.73;98790.59;106161;1256;63798;-83
2023/07/26 00:46:57;;;;;;;10.80;6.00;;;;;;;26.30;49.67;98791.08;106237;1255;60438;-83
2023/07/26 00:49:25;;;;;;;10.20;5.40;;;;;;;26.26;49.44;98791.27;106336;1254;60483;-84
2023/07/26 00:51:53;;;;;;;11.80;5.40;;;;;;;26.23;49.39;98789.00;106290;1254;63678;-83
2023/07/26 00:54:21;;;;;;;11.30;6.00;;;;;;;26.20;49.35;98795.99;106469;1251;61431;-81
2023/07/26 00:56:49;;;;;;;10.40;5.90;;;;;;;26.17;49.41;98800.79;106128;1253;64152;-82
2023/07/26 00:59:17;;;;;;;10.00;5.40;;;;;;;26.13;49.36;98799.59;106358;1251;60345;-80
2023/07/26 01:01:44;;;;;;;10.70;4.80;;;;;;;26.09;49.34;98802.05;106787;1255;60443;-80
2023/07/26 01:04:12;;;;;;;12.90;5.20;;;;;;;26.05;49.37;98800.85;106098;1251;63599;-83
2023/07/26 01:07:02;;;;;;;10.30;4.90;;;;;;;26.00;49.37;98798.98;106332;1251;61432;-82
2023/07/26 01:10:13;;;;;;;9.70;4.70;;;;;;;25.95;49.15;98801.77;106191;1255;63772;-84
2023/07/26 01:12:47;;;;;;;12.30;5.40;;;;;;;25.92;49.27;98809.55;106462;1253;60446;-83
2023/07/26 01:15:14;;;;;;;9.90;4.50;;;;;;;25.88;49.15;98806.77;106833;1253;60562;-82
2023/07/26 01:17:42;;;;;;;11.20;4.80;;;;;;;25.85;49.00;98811.29;107031;1253;63609;-80
2023/07/26 01:20:12;;;;;;;8.70;4.10;;;;;;;25.82;48.97;98805.67;106177;1253;61349;-86
2023/07/26 01:22:40;;;;;;;7.50;4.20;;;;;;;25.79;48.97;98811.48;106048;1254;62534;-89
2023/07/26 01:25:08;;;;;;;7.60;4.00;;;;;;;25.76;48.94;98817.70;106028;1254;60585;-85
2023/07/26 01:27:35;;;;;;;11.90;4.10;;;;;;;25.73;48.98;98818.92;106821;1253;60410;-89
2023/07/26 01:30:04;;;;;;;11.70;4.10;;;;;;;25.71;48.88;98824.40;106420;1253;64926;-79
2023/07/26 01:32:31;;;;;;;8.30;3.80;;;;;;;25.68;49.06;98825.85;106188;1255;60883;-88
2023/07/26 01:34:59;;;;;;;9.50;4.10;;;;;;;25.64;49.21;98824.14;106279;1258;63832;-87
2023/07/26 01:37:28;;;;;;;11.10;4.60;;;;;;;25.59;49.25;98829.62;106296;1253;60529;-84
2023/07/26 01:39:55;;;;;;;9.60;4.10;;;;;;;25.55;49.43;98833.52;107687;1253;60323;-82
2023/07/26 01:42:23;;;;;;;7.70;3.70;;;;;;;25.52;49.39;98840.45;107763;1252;63695;-83
2023/07/26 01:44:50;;;;;;;7.00;3.90;;;;;;;25.50;49.62;98846.46;107600;1253;60152;-87
2023/07/26 01:47:18;;;;;;;10.10;3.80;;;;;;;25.46;49.69;98851.88;106358;1253;63680;-88
2023/07/26 01:49:45;;;;;;;11.70;4.50;;;;;;;25.44;49.67;98852.41;106578;1253;60534;-89
2023/07/26 01:52:13;;;;;;;7.30;3.60;;;;;;;25.41;49.70;98866.59;106110;1253;60555;-86
2023/07/26 01:54:40;;;;;;;9.20;3.70;;;;;;;25.38;49.79;98862.21;106538;1256;64902;-85
2023/07/26 01:57:08;;;;;;;10.50;3.60;;;;;;;25.35;49.74;98859.33;106232;1255;62466;-83
2023/07/26 01:59:35;;;;;;;9.30;3.70;;;;;;;25.32;49.94;98863.56;106421;1257;63799;-85
2023/07/26 02:02:03;;;;;;;8.50;3.40;;;;;;;25.29;50.08;98858.20;106318;1257;60533;-83
2023/07/26 02:04:31;;;;;;;9.10;3.60;;;;;;;25.24;50.25;98856.84;106811;1253;60342;-86
2023/07/26 02:06:59;;;;;;;9.30;3.30;;;;;;;25.20;50.39;98862.89;106455;1253;63720;-81
2023/07/26 02:09:26;;;;;;;7.90;3.60;;;;;;;25.16;50.49;98868.77;106730;1254;61485;-82
2023/07/26 02:11:54;;;;;;;11.50;4.10;;;;;;;25.12;50.64;98881.02;106529;1258;62736;-84
2023/07/26 02:14:23;;;;;;;8.30;3.40;;;;;;;25.08;50.55;98890.45;106319;1253;60557;-85
2023/07/26 02:16:50;;;;;;;8.80;3.40;;;;;;;25.06;50.77;98888.71;106773;1253;60454;-86
2023/07/26 02:19:18;;;;;;;10.10;3.40;;;;;;;25.04;50.92;98894.35;106000;1252;63809;-84
2023/07/26 02:21:45;;;;;;;9.60;3.40;;;;;;;25.01;50.92;98887.42;106401;1253;61356;-85
2023/07/26 02:24:12;;;;;;;9.60;3.80;;;;;;;24.97;51.03;98888.30;106835;1255;62455;-87
2023/07/26 02:26:40;;;;;;;12.50;3.10;;;;;;;24.92;51.27;98898.05;106238;1253;60497;-84
2023/07/26 02:29:08;;;;;;;11.10;3.70;;;;;;;24.89;51.44;98903.88;106434;1254;60352;-90
2023/07/26 02:31:37;;;;;;;10.60;3.60;;;;;;;24.85;51.47;98903.77;106365;1253;64898;-86
2023/07/26 02:34:04;;;;;;;9.00;3.50;;;;;;;24.82;51.63;98912.30;106235;1256;61275;-83
2023/07/26 02:36:32;;;;;;;8.00;3.20;;;;;;;24.79;51.74;98922.60;106919;1253;62572;-84
2023/07/26 02:39:00;;;;;;;8.00;3.60;;;;;;;24.78;51.89;98929.20;106239;1254;60563;-84
2023/07/26 02:41:27;;;;;;;12.50;3.70;;;;;;;24.76;51.89;98933.48;106239;1253;60538;-85
2023/07/26 02:43:54;;;;;;;8.30;3.90;;;;;;;24.73;51.93;98935.54;106384;1253;64927;-87
2023/07/26 02:46:22;;;;;;;7.60;3.50;;;;;;;24.70;52.18;98937.17;106254;1254;61511;-86
2023/07/26 02:48:49;;;;;;;11.20;3.50;;;;;;;24.66;52.23;98935.40;107429;1256;63855;-83
2023/07/26 02:51:17;;;;;;;7.80;3.00;;;;;;;24.63;52.31;98930.69;107467;1252;60560;-82
2023/07/26 02:53:45;;;;;;;5.80;3.10;;;;;;;24.59;52.52;98934.62;107271;1252;60349;-83
2023/07/26 02:56:12;;;;;;;9.30;3.60;;;;;;;24.57;52.64;98948.27;107659;1252;64969;-86
2023/07/26 02:58:40;;;;;;;12.20;3.60;;;;;;;24.55;52.81;98951.30;106335;1253;61376;-83
2023/07/26 03:01:07;;;;;;;7.20;3.30;;;;;;;24.53;52.91;98959.42;106236;1253;63689;-81
2023/07/26 03:03:35;;;;;;;7.50;3.60;;;;;;;24.50;53.11;98967.02;106654;1256;60537;-87
2023/07/26 03:06:03;;;;;;;9.20;3.20;;;;;;;24.46;53.15;98966.31;106132;1256;60761;-85
2023/07/26 03:08:30;;;;;;;8.00;3.50;;;;;;;24.44;53.32;98968.33;106901;1253;63661;-82
2023/07/26 03:10:57;;;;;;;12.90;4.00;;;;;;;24.45;53.20;98968.40;106339;1257;60244;-81
2023/07/26 03:13:25;;;;;;;7.90;3.50;;;;;;;24.43;53.33;98973.38;106780;1254;63743;-82
2023/07/26 03:15:53;;;;;;;9.90;3.60;;;;;;;24.39;53.33;98981.44;106010;1253;60460;-83
2023/07/26 03:18:21;;;;;;;9.70;4.00;;;;;;;24.38;53.44;98985.04;106762;1253;60371;-83
2023/07/26 03:20:48;;;;;;;6.70;3.00;;;;;;;24.40;53.51;98991.52;106441;1253;64884;-87
2023/07/26 03:23:16;;;;;;;8.40;3.70;;;;;;;24.43;53.37;98997.85;107057;1253;60391;-87
2023/07/26 03:25:43;;;;;;;7.90;3.30;;;;;;;24.44;53.53;98998.11;106332;1253;62447;-86
2023/07/26 03:28:11;;;;;;;11.10;3.40;;;;;;;24.43;53.54;99001.61;106466;1253;60525;-84
2023/07/26 03:30:38;;;;;;;7.60;3.10;;;;;;;24.43;53.64;99014.23;106737;1252;60446;-84
2023/07/26 03:33:07;;;;;;;7.30;3.50;;;;;;;24.41;53.80;99021.84;106033;1253;64959;-86
2023/07/26 03:35:35;;;;;;;7.10;3.10;;;;;;;24.39;53.84;99031.06;107004;1253;61381;-82
2023/07/26 03:38:02;;;;;;;8.40;3.50;;;;;;;24.38;53.86;99034.76;106911;1252;62494;-84
2023/07/26 03:40:30;;;;;;;9.40;3.20;;;;;;;24.34;54.03;99037.98;107118;1257;60555;-83
2023/07/26 03:42:57;;;;;;;11.30;4.10;;;;;;;24.31;54.13;99038.80;107153;1253;60525;-83
2023/07/26 03:45:26;;;;;;;8.50;3.40;;;;;;;24.27;54.33;99042.29;107987;1253;63644;-80
2023/07/26 03:47:54;;;;;;;7.80;3.90;;;;;;;24.25;54.44;99047.42;107084;1253;61426;-83
2023/07/26 03:50:22;;;;;;;9.10;3.50;;;;;;;24.25;54.63;99051.29;107788;1252;62547;-82
2023/07/26 03:52:49;;;;;;;10.20;3.60;;;;;;;24.26;54.81;99045.50;107477;1251;60488;-82
2023/07/26 03:55:17;;;;;;;9.70;3.50;;;;;;;24.30;54.78;99043.84;106449;1252;60361;-81
2023/07/26 03:57:44;;;;;;;8.10;3.00;;;;;;;24.32;54.79;99043.17;106209;1252;63684;-87
2023/07/26 04:00:12;;;;;;;8.80;3.80;;;;;;;24.30;54.85;99038.73;106307;1254;60435;-85
2023/07/26 04:02:39;;;;;;;9.10;3.80;;;;;;;24.28;55.04;99038.23;106196;1254;62485;-81
2023/07/26 04:05:07;;;;;;;13.10;3.80;;;;;;;24.26;55.20;99038.89;106199;1254;60501;-86
2023/07/26 04:07:36;;;;;;;11.20;3.30;;;;;;;24.25;55.44;99038.43;106781;1254;59234;-88
2023/07/26 04:10:04;;;;;;;7.40;3.60;;;;;;;24.25;55.31;99039.20;106215;1254;63687;-87
2023/07/26 04:12:32;;;;;;;9.10;4.00;;;;;;;24.25;55.36;99035.86;106630;1254;61311;-87
2023/07/26 04:14:59;;;;;;;10.50;3.50;;;;;;;24.23;55.49;99038.63;106473;1253;63847;-84
2023/07/26 04:17:27;;;;;;;9.60;4.20;;;;;;;24.25;55.59;99033.23;106194;1252;60506;-85
2023/07/26 04:19:54;;;;;;;12.10;4.40;;;;;;;24.27;55.35;99028.36;106798;1253;60471;-86
2023/07/26 04:22:21;;;;;;;9.30;3.80;;;;;;;24.29;55.43;99039.27;106726;1255;64889;-91
2023/07/26 04:24:49;;;;;;;10.00;3.50;;;;;;;24.31;55.53;99037.58;106275;1253;60498;-84
2023/07/26 04:27:17;;;;;;;10.80;4.40;;;;;;;24.28;55.63;99045.21;106097;1253;63677;-83
2023/07/26 04:29:44;;;;;;;11.70;4.10;;;;;;;24.29;55.70;99044.27;106444;1253;60511;-86
2023/07/26 04:32:12;;;;;;;8.80;3.50;;;;;;;24.32;55.82;99049.29;106286;1254;60454;-87
2023/07/26 04:34:39;;;;;;;8.80;3.60;;;;;;;24.33;55.86;99053.23;106689;1253;63652;-83
2023/07/26 04:37:07;;;;;;;10.00;4.40;;;;;;;24.34;55.87;99045.07;106047;1257;61339;-86
2023/07/26 04:39:34;;;;;;;8.50;4.10;;;;;;;24.36;55.88;99035.91;106579;1254;63755;-87
2023/07/26 04:42:02;;;;;;;8.20;4.00;;;;;;;24.41;55.64;99020.48;106175;1253;60527;-83
2023/07/26 04:44:29;;;;;;;10.50;4.10;;;;;;;24.42;55.34;99007.08;106657;1252;60437;-88
2023/07/26 04:46:57;;;;;;;8.60;4.20;;;;;;;24.45;55.59;99014.37;106490;1253;64810;-79
2023/07/26 04:49:25;;;;;;;9.60;4.20;;;;;;;24.49;55.54;99021.97;106260;1258;60512;-87
2023/07/26 04:51:52;;;;;;;12.40;3.70;;;;;;;24.52;55.74;99026.84;106520;1254;63754;-82
2023/07/26 04:54:20;;;;;;;9.70;4.60;;;;;;;24.54;55.49;99036.04;106604;1253;60590;-86
2023/07/26 04:56:47;;;;;;;8.10;4.00;;;;;;;24.56;55.53;99039.50;106413;1253;60461;-81
2023/07/26 04:59:15;;;;;;;8.90;3.90;;;;;;;24.59;55.50;99035.17;106183;1253;64935;-86
2023/07/26 05:01:43;;;;;;;9.60;3.80;;;;;;;24.65;55.47;99036.36;106352;1254;60439;-85
2023/07/26 05:04:10;;;;;;;8.60;4.10;;;;;;;24.68;55.44;99036.18;105886;1258;62485;-78
2023/07/26 05:06:38;;;;;;;8.40;3.60;;;;;;;24.70;55.51;99040.89;106454;1254;60611;-83
2023/07/26 05:09:05;;;;;;;12.70;4.70;;;;;;;24.74;55.50;99041.70;106029;1253;61644;-87
2023/07/26 05:11:33;;;;;;;7.70;3.90;;;;;;;24.78;55.63;99042.06;106660;1253;64956;-86
2023/07/26 05:14:01;;;;;;;8.80;4.40;;;;;;;24.84;55.49;99039.13;106419;1253;62480;-82
2023/07/26 05:16:29;;;;;;;11.00;4.40;;;;;;;24.89;55.36;99041.20;106389;1251;63754;-84
2023/07/26 05:18:58;;;;;;;9.10;4.30;;;;;;;24.92;55.27;99044.45;106765;1255;60495;-82
2023/07/26 05:21:26;;;;;;;9.50;3.50;;;;;;;24.97;55.29;99048.55;106256;1253;60378;-86
2023/07/26 05:23:53;;;;;;;9.00;3.80;;;;;;;25.05;55.26;99054.05;106708;1251;63751;-83
2023/07/26 05:26:21;;;;;;;13.90;4.50;;;;;;;25.13;54.61;99058.11;106188;1251;61323;-85
2023/07/26 05:28:48;;;;;;;10.40;3.80;;;;;;;25.16;54.38;99062.67;106522;1251;63736;-87
2023/07/26 05:31:16;;;;;;;7.90;3.80;;;;;;;25.15;54.32;99067.45;106396;1251;60509;-79
2023/07/26 05:33:43;;;;;;;9.90;3.60;;;;;;;25.13;54.05;99064.53;106325;1257;60487;-86
2023/07/26 05:36:11;;;;;;;11.30;4.40;;;;;;;25.12;54.06;99066.92;106471;1251;64478;-85
2023/07/26 05:38:38;;;;;;;9.70;4.90;;;;;;;25.11;54.24;99070.14;106142;1251;70122;-82
2023/07/26 05:41:06;;;;;;;8.80;4.00;;;;;;;25.10;54.22;99069.64;106190;1252;63103;-85
2023/07/26 05:43:33;;;;;;;10.30;4.30;;;;;;;25.10;54.46;99071.85;106646;1252;60569;-85
2023/07/26 05:46:02;;;;;;;9.80;3.80;;;;;;;25.13;54.20;99078.52;106232;1251;60538;-86
2023/07/26 05:48:30;;;;;;;8.20;4.00;;;;;;;25.15;53.92;99078.27;106146;1257;64897;-78
2023/07/26 05:50:57;;;;;;;10.40;3.60;;;;;;;25.17;54.09;99083.30;106224;1253;61411;-87
2023/07/26 05:53:24;;;;;;;7.00;3.20;;;;;;;25.19;54.24;99082.79;106245;1256;70585;-83
2023/07/26 05:55:52;;;;;;;7.80;3.80;;;;;;;25.24;53.51;99086.30;106736;1254;60645;-82
2023/07/26 05:58:19;;;;;;;8.60;3.90;;;;;;;25.26;53.09;99081.33;106163;1253;59338;-87
2023/07/26 06:00:47;;;;;;;11.10;4.30;;;;;;;25.25;53.32;99066.98;108053;1251;65869;-82
2023/07/26 06:03:14;;;;;;;7.80;3.30;;;;;;;25.27;53.60;99064.38;106979;1251;61396;-84
2023/07/26 06:05:42;;;;;;;8.40;3.90;;;;;;;25.28;53.39;99063.86;106247;1253;63740;-88
2023/07/26 06:08:09;;;;;;;8.20;4.20;;;;;;;25.29;53.13;99070.98;106703;1255;60429;-87
2023/07/26 06:10:37;;;;;;;8.30;4.10;;;;;;;25.29;53.44;99065.77;106281;1256;60383;-87
2023/07/26 06:13:04;;;;;;;7.70;4.00;;;;;;;25.33;53.73;99077.92;107032;1251;63678;-86
2023/07/26 06:15:34;;;;;;;7.30;3.50;;;;;;;25.38;53.30;99072.64;107919;1251;61333;-86
2023/07/26 06:18:02;;;;;;;10.10;3.80;;;;;;;25.44;52.99;99058.77;105898;1253;62430;-82
2023/07/26 06:20:29;;;;;;;9.20;4.00;;;;;;;25.47;53.05;99061.63;106199;1251;60435;-80
2023/07/26 06:22:57;;;;;;;9.10;3.50;;;;;;;25.51;53.14;99062.55;106354;1251;60480;-84
2023/07/26 06:25:24;;;;;;;9.50;3.90;;;;;;;25.56;52.82;99071.21;106155;1251;64862;-83
2023/07/26 06:27:52;;;;;;;7.50;3.90;;;;;;;25.62;53.05;99070.42;106327;1253;61410;-86
2023/07/26 06:30:19;;;;;;;8.80;4.30;;;;;;;25.68;52.89;99076.30;106859;1256;63707;-84
2023/07/26 06:32:50;;;;;;;8.60;4.20;;;;;;;25.71;52.62;99083.08;106498;1253;60492;-81
2023/07/26 06:35:18;;;;;;;9.50;3.90;;;;;;;25.74;52.84;99082.13;108056;1251;58303;-83
2023/07/26 06:37:46;;;;;;;9.20;3.90;;;;;;;25.79;53.02;99079.31;106217;1257;64902;-86
2023/07/26 06:40:13;;;;;;;8.70;4.00;;;;;;;25.85;52.61;99087.95;107013;1257;60544;-82
2023/07/26 06:42:41;;;;;;;6.10;3.40;;;;;;;25.91;52.58;99099.86;106280;1251;63682;-87
2023/07/26 06:45:09;;;;;;;9.90;4.80;;;;;;;25.97;52.24;99109.10;106308;1251;60534;-87
2023/07/26 06:47:36;;;;;;;8.40;3.80;;;;;;;26.01;52.04;99105.33;108557;1255;60369;-83
2023/07/26 06:50:04;;;;;;;8.50;4.30;;;;;;;26.05;52.13;99108.48;106156;1257;64889;-81
2023/07/26 06:52:31;;;;;;;9.00;4.20;;;;;;;26.09;52.00;99106.67;106457;1251;61434;-85
2023/07/26 06:54:59;;;;;;;7.40;3.70;;;;;;;26.12;51.93;99117.64;106688;1257;62465;-83
2023/07/26 06:57:29;;;;;;;11.30;4.30;;;;;;;26.15;51.58;99119.46;107117;1251;59129;-86
2023/07/26 06:59:56;;;;;;;7.20;3.60;;;;;;;26.18;51.72;99131.99;108303;1251;60556;-86
2023/07/26 07:02:24;;;;;;;7.50;3.60;;;;;;;26.21;51.70;99118.16;106178;1257;64934;-88
2023/07/26 07:04:51;;;;;;;10.30;4.00;;;;;;;26.24;51.65;99118.41;106186;1252;72079;-90
2023/07/26 07:07:19;;;;;;;8.00;3.70;;;;;;;26.27;51.33;99122.45;106219;1257;62546;-86
2023/07/26 07:09:46;;;;;;;8.60;4.10;;;;;;;26.27;51.51;99120.46;106100;1253;60549;-83
2023/07/26 07:12:16;;;;;;;9.30;4.30;;;;;;;26.27;51.48;99133.61;106341;1251;60472;-83
2023/07/26 07:14:44;;;;;;;9.70;4.40;;;;;;;26.27;51.39;99138.32;106484;1251;64932;-84
2023/07/26 07:17:11;;;;;;;7.10;3.90;;;;;;;26.27;51.28;99143.55;106471;1254;60537;-89
2023/07/26 07:19:39;;;;;;;7.60;3.80;;;;;;;26.27;51.55;99130.61;106630;1253;63880;-89
2023/07/26 07:22:06;;;;;;;7.90;4.10;;;;;;;26.30;51.87;99128.48;106602;1252;60482;-86
2023/07/26 07:24:34;;;;;;;8.10;3.70;;;;;;;26.37;52.17;99132.95;108278;1251;296364;-86
2023/07/26 07:29:11;;;;;;;;;;;;;;;26.31;52.18;99129.71;103133;1293;600917;-88
2023/07/26 07:31:38;;;;;;;9.40;4.00;;;;;;;26.51;51.25;99128.48;105209;1267;59256;-80
2023/07/26 07:34:06;;;;;;;12.20;4.20;;;;;;;26.54;50.97;99137.02;105488;1272;59245;-85
2023/07/26 07:36:33;;;;;;;10.70;4.80;;;;;;;26.55;50.81;99146.20;105751;1267;63277;-84
2023/07/26 07:39:01;;;;;;;8.80;4.50;;;;;;;26.56;51.27;99137.48;105465;1266;60258;-87
2023/07/26 07:41:28;;;;;;;8.40;4.20;;;;;;;26.61;50.99;99125.22;105438;1266;63783;-86
2023/07/26 07:43:56;;;;;;;7.70;4.00;;;;;;;26.65;50.35;99123.00;105356;1269;237132;-84
2023/07/26 07:46:28;;;;;;;7.50;3.80;;;;;;;26.65;49.82;99133.56;106269;1269;59257;-85
2023/07/26 07:48:56;;;;;;;8.10;3.60;;;;;;;26.65;49.76;99156.89;105366;1272;63320;-85
2023/07/26 07:51:23;;;;;;;7.10;3.50;;;;;;;26.67;49.93;99161.86;106027;1266;61383;-85
2023/07/26 07:53:51;;;;;;;10.00;4.20;;;;;;;26.71;50.15;99165.02;105311;1270;62583;-87
2023/07/26 07:56:18;;;;;;;9.10;4.00;;;;;;;26.72;50.12;99154.39;105695;1269;59653;-82
2023/07/26 07:58:46;;;;;;;9.80;4.10;;;;;;;26.71;50.27;99155.68;105419;1270;59667;-85
2023/07/26 08:01:13;;;;;;;7.60;4.30;;;;;;;26.73;50.31;99155.92;105486;1264;64060;-84
2023/07/26 08:03:40;;;;;;;8.00;3.20;;;;;;;26.76;50.48;99156.25;105503;1269;61482;-85
2023/07/26 08:06:09;;;;;;;6.90;3.60;;;;;;;26.80;50.15;99154.77;106062;1266;62567;-86
2023/07/26 08:08:37;;;;;;;8.50;4.20;;;;;;;26.84;49.69;99159.16;105424;1267;59737;-85
2023/07/26 08:11:04;;;;;;;9.40;4.70;;;;;;;26.87;49.76;99158.23;106326;1262;59672;-87
2023/07/26 08:13:31;;;;;;;7.30;3.70;;;;;;;26.94;50.03;99148.65;105992;1257;62824;-78
2023/07/26 08:16:02;;;;;;;7.70;3.90;;;;;;;27.01;49.97;99140.50;105690;1257;61987;-81
2023/07/26 08:18:31;;;;;;;7.10;3.90;;;;;;;27.10;49.90;99136.44;105779;1262;62488;-88
2023/07/26 08:20:59;;;;;;;7.40;4.70;;;;;;;27.19;49.69;99125.79;106026;1260;59818;-83
2023/07/26 08:23:26;;;;;;;9.50;4.30;;;;;;;27.30;49.18;99109.88;106866;1262;59625;-87
2023/07/26 08:25:54;;;;;;;6.20;3.60;;;;;;;27.39;49.17;99102.09;105803;1260;64271;-88
2023/07/26 08:28:22;;;;;;;10.10;4.10;;;;;;;27.49;48.85;99100.81;105687;1260;61276;-86
2023/07/26 08:30:49;;;;;;;7.50;4.10;;;;;;;27.55;48.67;99107.73;105574;1264;62492;-87
2023/07/26 08:33:17;;;;;;;9.90;4.50;;;;;;;27.61;48.60;99126.35;106187;1260;60941;-88
2023/07/26 08:35:44;;;;;;;7.50;4.00;;;;;;;27.67;48.14;99146.85;105676;1260;59570;-84
2023/07/26 08:38:12;;;;;;;7.00;3.90;;;;;;;27.65;48.41;99172.57;105729;1263;62907;-83
2023/07/26 08:40:46;;;;;;;7.00;4.00;;;;;;;27.58;48.53;99186.86;106149;1260;61573;-81
2023/07/26 08:43:14;;;;;;;6.80;4.10;;;;;;;27.50;48.32;99192.98;106033;1265;62472;-84
2023/07/26 08:45:42;;;;;;;7.90;4.20;;;;;;;27.38;48.31;99220.85;106086;1260;59727;-87
2023/07/26 08:48:09;;;;;;;7.00;3.80;;;;;;;27.24;48.86;99240.27;106371;1264;59629;-80
2023/07/26 08:50:41;;;;;;;9.30;4.20;;;;;;;27.12;49.16;99223.00;105884;1265;62848;-86
2023/07/26 08:53:08;;;;;;;6.50;3.70;;;;;;;27.02;49.28;99214.95;105922;1260;61387;-82
2023/07/26 08:55:36;;;;;;;6.10;3.80;;;;;;;26.95;49.52;99228.88;106286;1260;62535;-81
2023/07/26 08:58:04;;;;;;;8.20;3.60;;;;;;;26.87;49.89;99245.06;105862;1263;59692;-83
2023/07/26 09:00:32;;;;;;;6.50;3.50;;;;;;;26.81;50.73;99263.85;106259;1265;59644;-86
2023/07/26 09:03:01;;;;;;;6.80;3.70;;;;;;;26.74;51.13;99294.72;105737;1260;72159;-82
2023/07/26 09:05:28;;;;;;;9.00;4.00;;;;;;;26.65;51.44;99335.21;106461;1264;60360;-82
2023/07/26 09:07:56;;;;;;;7.20;3.70;;;;;;;26.53;52.27;99377.69;105782;1263;63719;-83
2023/07/26 09:10:25;;;;;;;7.00;3.90;;;;;;;26.37;53.21;99379.17;106004;1259;59818;-81
2023/07/26 09:12:52;;;;;;;8.00;4.00;;;;;;;26.21;53.80;99361.60;106297;1263;59662;-84
2023/07/26 09:15:20;;;;;;;7.80;4.20;;;;;;;26.10;54.04;99356.94;107310;1260;62930;-83
2023/07/26 09:17:48;;;;;;;6.10;4.00;;;;;;;26.06;54.58;99342.71;108375;1259;60133;-83
2023/07/26 09:20:25;;;;;;;9.00;4.60;;;;;;;26.05;55.36;99357.75;105987;1260;63685;-86
2023/07/26 09:23:02;;;;;;;7.80;4.30;;;;;;;25.97;55.94;99372.25;105843;1260;59707;-82
2023/07/26 09:25:47;;;;;;;7.40;3.90;;;;;;;25.91;56.36;99352.09;105998;1259;59550;-89
2023/07/26 09:28:15;;;;;;;6.90;4.10;;;;;;;25.90;56.33;99315.48;106215;1265;64089;-84
2023/07/26 09:30:48;;;;;;;7.00;4.40;;;;;;;25.91;56.73;99332.68;106046;1265;60394;-88
2023/07/26 09:33:16;;;;;;;7.00;4.20;;;;;;;25.95;56.73;99333.77;105682;1265;62547;-86
2023/07/26 09:35:52;;;;;;;8.10;3.90;;;;;;;26.01;56.40;99339.14;105911;1265;59768;-87
2023/07/26 09:38:24;;;;;;;6.00;3.90;;;;;;;26.09;56.26;99344.41;105949;1265;59689;-85
2023/07/26 09:40:51;;;;;;;7.30;3.80;;;;;;;26.18;56.05;99356.34;106291;1264;64120;-84
2023/07/26 09:43:29;;;;;;;6.90;3.90;;;;;;;26.21;55.62;99379.78;106153;1263;71243;-85
2023/07/26 09:46:04;;;;;;;9.40;3.90;;;;;;;26.17;55.63;99375.80;105925;1260;63712;-82
2023/07/26 09:48:34;;;;;;;5.30;3.40;;;;;;;26.17;55.60;99381.17;106400;1261;59733;-84
2023/07/26 09:51:08;;;;;;;5.60;3.80;;;;;;;26.17;55.54;99392.58;105795;1260;59673;-86
2023/07/26 09:53:38;;;;;;;5.00;3.20;;;;;;;26.17;55.25;99390.95;107238;1263;71756;-80
2023/07/26 09:56:06;;;;;;;5.90;3.80;;;;;;;26.16;55.32;99376.17;108120;1260;60263;-82
2023/07/26 09:58:33;;;;;;;6.90;3.50;;;;;;;26.15;55.12;99373.40;107912;1261;63844;-83
2023/07/26 10:01:01;;;;;;;6.90;3.80;;;;;;;26.18;54.77;99311.58;107790;1260;59390;-82
2023/07/26 10:03:29;;;;;;;7.40;3.90;;;;;;;26.23;54.24;99276.92;107534;1258;59675;-84
2023/07/26 10:05:57;;;;;;;5.30;3.20;;;;;;;26.29;54.27;99217.13;107772;1260;62875;-82
2023/07/26 10:08:24;;;;;;;6.70;3.20;;;;;;;26.42;53.42;99154.29;106749;1260;60094;-85
2023/07/26 10:10:52;;;;;;;5.80;3.40;;;;;;;26.48;52.53;99152.52;106687;1260;63813;-88
2023/07/26 10:13:20;;;;;;;6.50;3.60;;;;;;;26.47;52.73;99144.89;107782;1260;59266;-89
2023/07/26 10:15:49;;;;;;;6.60;3.60;;;;;;;26.52;52.71;99161.28;107265;1258;59347;-86
2023/07/26 10:18:17;;;;;;;6.00;3.50;;;;;;;26.56;52.85;99183.23;107397;1263;62831;-83
2023/07/26 10:20:45;;;;;;;5.50;3.80;;;;;;;26.55;52.76;99190.17;106021;1261;60163;-84
2023/07/26 10:23:12;;;;;;;6.30;4.20;;;;;;;26.48;53.06;99194.80;106578;1263;62546;-87
2023/07/26 10:25:40;;;;;;;6.00;3.60;;;;;;;26.39;53.49;99193.38;106020;1264;59749;-86
2023/07/26 10:28:08;;;;;;;5.00;3.40;;;;;;;26.34;53.71;99193.02;106115;1261;59775;-89
2023/07/26 10:30:37;;;;;;;5.60;3.50;;;;;;;26.29;53.82;99190.05;106321;1260;62819;-88
2023/07/26 10:33:13;;;;;;;5.30;3.50;;;;;;;26.25;53.98;99196.91;105945;1263;60121;-82
2023/07/26 10:35:42;;;;;;;6.00;3.10;;;;;;;26.22;54.10;99202.05;105776;1264;62444;-84
2023/07/26 10:38:13;;;;;;;5.90;3.50;;;;;;;26.23;54.11;99186.59;105714;1263;59698;-85
2023/07/26 10:40:40;;;;;;;5.60;3.70;;;;;;;26.31;54.27;99191.53;105887;1263;59561;-91
2023/07/26 10:43:20;;;;;;;5.30;3.20;;;;;;;26.37;54.08;99195.35;106050;1261;64039;-83
2023/07/26 10:45:49;;;;;;;5.50;3.60;;;;;;;26.40;53.83;99192.41;107732;1260;61338;-85
2023/07/26 10:48:20;;;;;;;5.50;3.50;;;;;;;26.46;53.82;99192.73;105998;1262;63902;-84
2023/07/26 10:50:47;;;;;;;5.70;3.80;;;;;;;26.53;54.11;99186.80;105758;1265;59781;-85
2023/07/26 10:53:36;;;;;;;5.60;3.50;;;;;;;26.63;53.65;99194.62;106377;1261;59677;-90
2023/07/26 10:56:11;;;;;;;5.90;3.50;;;;;;;26.74;53.31;99195.64;105780;1265;62823;-87
2023/07/26 10:59:05;;;;;;;5.50;3.40;;;;;;;26.83;53.16;99199.21;106194;1260;61578;-87
2023/07/26 11:01:40;;;;;;;5.30;3.60;;;;;;;26.98;53.25;99203.48;105780;1271;64849;-85
2023/07/26 11:04:13;;;;;;;7.60;3.80;;;;;;;27.25;52.89;99205.15;106327;1264;59875;-89
2023/07/26 11:07:04;;;;;;;6.50;3.80;;;;;;;27.54;52.21;99205.91;105835;1260;59606;-86
2023/07/26 11:09:32;;;;;;;5.10;3.50;;;;;;;27.78;51.22;99209.25;106110;1265;64226;-85
2023/07/26 11:11:59;;;;;;;5.70;3.50;;;;;;;27.84;50.60;99208.78;106369;1263;61543;-88
2023/07/26 11:14:32;;;;;;;5.60;3.70;;;;;;;27.84;50.38;99195.92;105709;1263;62459;-85
2023/07/26 11:17:16;;;;;;;6.30;3.40;;;;;;;27.88;50.20;99193.93;105968;1265;59761;-83
2023/07/26 11:19:49;;;;;;;5.30;3.40;;;;;;;27.94;49.95;99188.19;106004;1259;59723;-86
2023/07/26 11:22:19;;;;;;;6.00;3.10;;;;;;;28.00;49.77;99187.56;105988;1264;64064;-85
2023/07/26 11:24:47;;;;;;;5.40;2.80;;;;;;;28.07;48.83;99190.17;106363;1260;60378;-87
2023/07/26 11:27:14;;;;;;;5.60;2.40;;;;;;;28.11;48.63;99196.72;105980;1266;63688;-85
2023/07/26 11:29:42;;;;;;;5.60;2.70;;;;;;;28.17;47.86;99207.02;105681;1264;59643;-84
2023/07/26 11:32:09;;;;;;;5.40;3.00;;;;;;;28.22;47.84;99219.77;106184;1262;59746;-83